Time;durP1;ratioP1;P1;durP2;ratioP2;P2;SDS_P1;SDS_P2;PMS_P1;PMS_P2;Temp;Humidity;BMP_temperature;BMP_pressure;BME280_temperature;BME280_humidity;BME280_pressure;Samples;Min_cycle;Max_cycle;Signal;HPM_P1;HPM_P2
2024/01/25 00:00:29;;;;;;;;;4.33;3.00;;;;;18.07;100.00;102595.72;2095293;28;46479;-65
2024/01/25 00:01:29;;;;;;;;;6.00;4.00;;;;;18.06;100.00;102586.75;2096943;28;46257;-65
2024/01/25 00:02:30;;;;;;;;;5.33;4.00;;;;;18.06;100.00;102586.75;2093779;28;46106;-66
2024/01/25 00:03:30;;;;;;;;;4.00;4.00;;;;;18.06;100.00;102589.44;2094352;28;47121;-65
2024/01/25 00:04:30;;;;;;;;;4.67;3.33;;;;;18.04;100.00;102585.91;2095695;28;46686;-66
2024/01/25 00:05:31;;;;;;;;;2.00;2.00;;;;;18.04;100.00;102585.00;2095586;28;46612;-65
2024/01/25 00:06:31;;;;;;;;;5.33;4.00;;;;;18.03;100.00;102589.50;2095766;28;46700;-66
2024/01/25 00:07:31;;;;;;;;;5.00;5.00;;;;;18.02;100.00;102587.72;2095727;28;46449;-66
2024/01/25 00:08:32;;;;;;;;;3.67;3.67;;;;;18.01;100.00;102583.28;2096121;28;46780;-66
2024/01/25 00:09:32;;;;;;;;;4.33;4.33;;;;;18.01;100.00;102587.78;2096912;28;46544;-66
2024/01/25 00:10:32;;;;;;;;;5.67;5.67;;;;;17.99;100.00;102578.88;2104110;28;45533;-66
2024/01/25 00:11:33;;;;;;;;;6.00;4.67;;;;;17.98;100.00;102579.78;2097830;27;46576;-66
2024/01/25 00:12:34;;;;;;;;;3.00;3.00;;;;;17.97;100.00;102580.72;2097035;28;46980;-66
2024/01/25 00:13:34;;;;;;;;;5.33;3.67;;;;;17.94;100.00;102577.19;2097000;28;45307;-66
2024/01/25 00:14:34;;;;;;;;;4.00;3.00;;;;;17.96;100.00;102578.94;2096955;28;46550;-67
2024/01/25 00:15:35;;;;;;;;;6.00;4.67;;;;;17.95;100.00;102575.38;2096798;28;46507;-65
2024/01/25 00:16:35;;;;;;;;;6.00;6.00;;;;;17.97;100.00;102572.66;2096943;28;46473;-65
2024/01/25 00:17:36;;;;;;;;;4.33;4.33;;;;;17.96;100.00;102570.88;2097178;28;46179;-66
2024/01/25 00:18:37;;;;;;;;;5.75;5.00;;;;;17.94;100.00;102568.25;2095830;28;46392;-66
2024/01/25 00:19:37;;;;;;;;;8.33;6.00;;;;;17.93;100.00;102567.34;2096671;28;46338;-65
2024/01/25 00:20:37;;;;;;;;;5.00;4.67;;;;;17.95;100.00;102570.00;2096653;28;46359;-66
2024/01/25 00:21:44;;;;;;;;;3.67;3.67;;;;;17.95;100.00;102567.31;2097118;28;46552;-66
2024/01/25 00:22:45;;;;;;;;;4.00;4.00;;;;;17.94;100.00;102566.44;2096663;28;46931;-65
2024/01/25 00:23:45;;;;;;;;;7.75;4.25;;;;;17.93;100.00;102561.09;2096936;28;46647;-65
2024/01/25 00:24:45;;;;;;;;;5.33;4.67;;;;;17.94;100.00;102561.06;2096348;28;46488;-66
2024/01/25 00:25:46;;;;;;;;;9.00;7.67;;;;;17.93;100.00;102563.78;2096317;28;45215;-66
2024/01/25 00:26:46;;;;;;;;;5.33;5.33;;;;;17.90;100.00;102561.16;2097145;28;46088;-66
2024/01/25 00:27:47;;;;;;;;;6.00;5.33;;;;;17.89;100.00;102567.44;2096843;28;45616;-67
2024/01/25 00:28:47;;;;;;;;;4.67;4.00;;;;;17.88;100.00;102561.19;2096832;28;46872;-67
2024/01/25 00:29:48;;;;;;;;;9.67;4.00;;;;;17.85;100.00;102563.94;2096633;28;46503;-66
2024/01/25 00:30:48;;;;;;;;;5.33;5.33;;;;;17.82;100.00;102561.34;2096827;28;46618;-65
2024/01/25 00:31:48;;;;;;;;;5.33;5.33;;;;;17.82;100.00;102557.78;2096700;28;46250;-66
2024/01/25 00:32:49;;;;;;;;;3.00;3.00;;;;;17.81;100.00;102567.63;2097075;28;45488;-67
2024/01/25 00:33:49;;;;;;;;;7.33;3.00;;;;;17.80;100.00;102563.19;2097157;28;46259;-65
2024/01/25 00:34:50;;;;;;;;;3.33;3.33;;;;;17.69;100.00;102561.66;2097087;28;46608;-65
2024/01/25 00:35:51;;;;;;;;;5.33;4.67;;;;;17.67;100.00;102566.13;2096891;28;45050;-65
2024/01/25 00:36:51;;;;;;;;;5.33;4.33;;;;;17.64;100.00;102565.25;2096053;28;47293;-65
2024/01/25 00:37:52;;;;;;;;;4.33;2.67;;;;;17.64;100.00;102567.94;2096711;28;46587;-65
2024/01/25 00:38:53;;;;;;;;;3.33;3.33;;;;;17.63;100.00;102560.81;2097252;28;46176;-66
2024/01/25 00:39:54;;;;;;;;;6.50;4.25;;;;;17.60;100.00;102558.19;2089464;28;46638;-66
2024/01/25 00:40:54;;;;;;;;;5.67;3.00;;;;;17.60;100.00;102565.38;2096886;28;46784;-66
2024/01/25 00:42:05;;;;;;;;;3.67;3.67;;;;;17.62;100.00;102563.53;2095867;28;45816;-66
2024/01/25 00:43:06;;;;;;;;;4.00;4.00;;;;;17.61;100.00;102556.41;2096102;28;46790;-66
2024/01/25 00:44:06;;;;;;;;;6.33;5.00;;;;;17.62;100.00;102555.47;2096494;28;46678;-65
2024/01/25 00:45:07;;;;;;;;;5.00;4.67;;;;;17.61;100.00;102549.22;2096415;28;46973;-66
2024/01/25 00:46:08;;;;;;;;;5.00;3.00;;;;;17.54;100.00;102557.47;2095586;28;46264;-66
2024/01/25 00:47:09;;;;;;;;;4.67;4.00;;;;;17.49;100.00;102549.50;2095449;28;46734;-66
2024/01/25 00:48:11;;;;;;;;;4.75;4.00;;;;;17.45;100.00;102555.84;2096153;28;46529;-66
2024/01/25 00:49:11;;;;;;;;;2.50;2.50;;;;;17.48;100.00;102550.41;2095285;28;46749;-65
2024/01/25 00:50:12;;;;;;;;;6.00;5.00;;;;;17.51;100.00;102546.78;2095591;28;46661;-65
2024/01/25 00:51:18;;;;;;;;;6.50;4.50;;;;;17.53;100.00;102551.22;2096218;28;46970;-65
2024/01/25 00:52:19;;;;;;;;;5.00;3.25;;;;;17.53;100.00;102545.84;2088766;28;46892;-65
2024/01/25 00:53:19;;;;;;;;;6.33;4.00;;;;;17.53;100.00;102544.94;2096619;28;46616;-65
2024/01/25 00:54:20;;;;;;;;;7.00;4.67;;;;;17.53;100.00;102543.16;2095518;28;46376;-65
2024/01/25 00:55:21;;;;;;;;;4.33;3.33;;;;;17.56;100.00;102544.88;2095273;28;46300;-65
2024/01/25 00:56:21;;;;;;;;;3.33;3.33;;;;;17.59;100.00;102539.44;2096839;28;46201;-64
2024/01/25 00:57:22;;;;;;;;;3.33;3.33;;;;;17.61;100.00;102542.97;2087087;28;46044;-65
2024/01/25 00:58:22;;;;;;;;;5.33;2.67;;;;;17.62;100.00;102544.75;2095556;28;46510;-65
2024/01/25 00:59:23;;;;;;;;;6.33;2.33;;;;;17.64;100.00;102545.59;2097107;28;46682;-65
2024/01/25 01:00:24;;;;;;;;;3.67;1.33;;;;;17.65;100.00;102548.22;2101407;28;46197;-65
2024/01/25 01:01:24;;;;;;;;;5.00;4.00;;;;;17.63;100.00;102544.69;2099012;28;46645;-65
2024/01/25 01:02:30;;;;;;;;;4.00;4.00;;;;;17.63;100.00;102550.06;2096687;28;46707;-66
2024/01/25 01:03:31;;;;;;;;;5.00;4.00;;;;;17.68;100.00;102552.69;2096404;28;46358;-65
2024/01/25 01:04:31;;;;;;;;;3.33;3.33;;;;;17.70;100.00;102542.81;2096423;28;46072;-65
2024/01/25 01:05:32;;;;;;;;;5.00;4.00;;;;;17.71;100.00;102554.44;2096787;28;46309;-65
2024/01/25 01:06:33;;;;;;;;;3.33;3.33;;;;;17.71;100.00;102549.94;2095231;28;46583;-65
2024/01/25 01:07:33;;;;;;;;;4.67;3.33;;;;;17.70;100.00;102547.31;2095213;28;46307;-65
2024/01/25 01:08:34;;;;;;;;;5.33;3.00;;;;;17.71;100.00;102546.38;2096810;28;46726;-65
2024/01/25 01:09:34;;;;;;;;;3.00;3.00;;;;;17.69;100.00;102546.41;2095234;28;46209;-67
2024/01/25 01:10:34;;;;;;;;;4.00;4.00;;;;;17.61;100.00;102535.81;2096911;28;46160;-65
2024/01/25 01:11:36;;;;;;;;;3.00;2.67;;;;;17.59;100.00;102544.81;2096269;28;46307;-65
2024/01/25 01:12:37;;;;;;;;;5.50;4.50;;;;;17.57;100.00;102546.66;2096709;28;46540;-65
2024/01/25 01:13:37;;;;;;;;;4.00;3.00;;;;;17.57;100.00;102542.16;2097864;28;45989;-65
2024/01/25 01:14:37;;;;;;;;;6.33;5.67;;;;;17.55;100.00;102541.31;2096697;28;46629;-65
2024/01/25 01:15:38;;;;;;;;;5.00;4.33;;;;;17.55;100.00;102538.63;2096656;28;46477;-65
2024/01/25 01:16:38;;;;;;;;;4.00;3.67;;;;;17.54;100.00;102536.88;2099316;28;46326;-66
2024/01/25 01:17:38;;;;;;;;;3.33;3.33;;;;;17.54;100.00;102536.88;2101178;27;46258;-66
2024/01/25 01:18:39;;;;;;;;;4.00;4.00;;;;;17.56;100.00;102531.47;2096733;28;46536;-65
2024/01/25 01:19:39;;;;;;;;;5.00;2.33;;;;;17.57;100.00;102533.22;2097195;28;46046;-66
2024/01/25 01:20:39;;;;;;;;;5.00;4.00;;;;;17.55;100.00;102532.38;2111820;27;46293;-66
2024/01/25 01:21:43;;;;;;;;;4.00;4.00;;;;;17.53;100.00;102531.50;2108438;27;46138;-66
2024/01/25 01:22:43;;;;;;;;;2.75;2.75;;;;;17.51;100.00;102533.34;2110161;27;46481;-66
2024/01/25 01:23:44;;;;;;;;;3.33;3.00;;;;;17.53;100.00;102534.19;2097327;28;46273;-65
2024/01/25 01:24:44;;;;;;;;;6.00;4.00;;;;;17.55;100.00;102540.44;2098168;28;46420;-66
2024/01/25 01:25:44;;;;;;;;;3.33;3.33;;;;;17.57;100.00;102527.88;2108034;27;45479;-66
2024/01/25 01:26:46;;;;;;;;;3.67;3.33;;;;;17.58;100.00;102524.25;2107541;27;46359;-66
2024/01/25 01:27:46;;;;;;;;;6.25;4.25;;;;;17.62;100.00;102528.63;2111354;27;46553;-66
2024/01/25 01:28:47;;;;;;;;;2.67;2.67;;;;;17.58;100.00;102530.50;2105690;27;46790;-66
2024/01/25 01:29:47;;;;;;;;;2.33;2.33;;;;;17.57;100.00;102523.38;2109198;27;46963;-65
2024/01/25 01:30:47;;;;;;;;;3.00;3.00;;;;;17.57;100.00;102527.88;2109336;27;46748;-65
2024/01/25 01:31:48;;;;;;;;;4.33;4.33;;;;;17.56;100.00;102523.41;2105917;27;46296;-65
2024/01/25 01:32:48;;;;;;;;;4.33;4.00;;;;;17.54;100.00;102522.56;2111349;27;46542;-65
2024/01/25 01:33:48;;;;;;;;;6.00;5.33;;;;;17.54;100.00;102514.50;2107243;27;46800;-65
2024/01/25 01:34:49;;;;;;;;;6.00;4.33;;;;;17.54;100.00;102520.75;2107844;27;46495;-65
2024/01/25 01:35:49;;;;;;;;;4.67;3.33;;;;;17.53;100.00;102518.09;2110745;27;46933;-65
2024/01/25 01:36:49;;;;;;;;;5.33;5.00;;;;;17.61;100.00;102525.06;2105890;27;46810;-65
2024/01/25 01:37:50;;;;;;;;;5.00;3.67;;;;;17.66;100.00;102527.66;2109576;27;46220;-65
2024/01/25 01:38:50;;;;;;;;;3.00;3.00;;;;;17.62;100.00;102524.16;2108655;27;46468;-66
2024/01/25 01:39:52;;;;;;;;;4.33;3.33;;;;;17.62;100.00;102521.47;2106299;27;46222;-65
2024/01/25 01:40:52;;;;;;;;;2.75;2.75;;;;;17.60;100.00;102523.31;2110931;27;46756;-66
2024/01/25 01:41:53;;;;;;;;;6.33;3.33;;;;;17.61;100.00;102522.38;2103907;27;46434;-65
2024/01/25 01:43:00;;;;;;;;;4.00;2.00;;;;;17.53;100.00;102526.13;2104273;27;45176;-66
2024/01/25 01:44:01;;;;;;;;;3.25;2.50;;;;;17.46;100.00;102522.72;2111580;27;45079;-65
2024/01/25 01:45:01;;;;;;;;;1.67;1.67;;;;;17.46;100.00;102528.09;2106005;27;46758;-65
2024/01/25 01:46:09;;;;;;;;;5.67;4.00;;;;;17.41;100.00;102529.13;2109186;27;46618;-65
2024/01/25 01:47:09;;;;;;;;;2.25;2.25;;;;;17.41;100.00;102530.00;2110265;27;47307;-66
2024/01/25 01:48:09;;;;;;;;;4.67;3.33;;;;;17.39;100.00;102529.13;2105832;27;46271;-65
2024/01/25 01:49:14;;;;;;;;;5.00;3.33;;;;;17.36;100.00;102527.41;2110813;27;46455;-65
2024/01/25 01:50:14;;;;;;;;;7.00;2.25;;;;;17.38;100.00;102537.22;2109199;27;46785;-65
2024/01/25 01:51:15;;;;;;;;;3.33;3.33;;;;;17.37;100.00;102530.97;2106595;27;47734;-66
2024/01/25 01:52:17;;;;;;;;;4.00;2.33;;;;;17.35;100.00;102528.31;2106452;27;46381;-65
2024/01/25 01:53:18;;;;;;;;;4.00;2.50;;;;;17.34;100.00;102531.91;2093224;28;46589;-65
2024/01/25 01:54:18;;;;;;;;;3.67;3.67;;;;;17.33;100.00;102531.94;2096584;28;46529;-65
2024/01/25 01:55:19;;;;;;;;;3.33;3.00;;;;;17.32;100.00;102536.44;2096216;28;46281;-65
2024/01/25 01:56:20;;;;;;;;;3.67;3.67;;;;;17.31;100.00;102534.66;2096915;28;45677;-66
2024/01/25 01:57:20;;;;;;;;;4.33;3.00;;;;;17.43;100.00;102530.84;2097957;28;46894;-66
2024/01/25 01:58:23;;;;;;;;;5.67;3.67;;;;;17.38;100.00;102531.84;2098024;28;46943;-65
2024/01/25 01:59:25;;;;;;;;;2.25;2.25;;;;;17.36;100.00;102524.72;2097738;28;47050;-65
2024/01/25 02:00:26;;;;;;;;;3.25;2.25;;;;;17.37;100.00;102528.28;2098300;28;45849;-65
2024/01/25 02:01:27;;;;;;;;;4.00;4.00;;;;;17.36;100.00;102521.16;2097870;28;46687;-66
2024/01/25 02:02:29;;;;;;;;;3.75;3.75;;;;;17.46;100.00;102517.34;2097948;28;46855;-65
2024/01/25 02:03:29;;;;;;;;;3.00;3.00;;;;;17.49;100.00;102521.75;2097970;28;46206;-66
2024/01/25 02:04:29;;;;;;;;;4.00;3.33;;;;;17.40;100.00;102517.47;2097619;28;47967;-65
2024/01/25 02:05:30;;;;;;;;;4.00;4.00;;;;;17.42;100.00;102522.84;2099480;28;46651;-65
2024/01/25 02:06:30;;;;;;;;;4.33;2.67;;;;;17.39;100.00;102523.75;2100270;27;47246;-65
2024/01/25 02:07:31;;;;;;;;;3.00;1.33;;;;;17.38;100.00;102515.75;2101488;28;46737;-66
2024/01/25 02:08:31;;;;;;;;;5.33;3.33;;;;;17.38;100.00;102518.44;2097852;28;46244;-65
2024/01/25 02:09:31;;;;;;;;;5.33;3.33;;;;;17.36;100.00;102524.72;2097190;28;46461;-65
2024/01/25 02:10:32;;;;;;;;;3.00;2.33;;;;;17.34;100.00;102525.66;2096802;28;46820;-65
2024/01/25 02:11:32;;;;;;;;;2.33;2.33;;;;;17.35;100.00;102522.06;2098081;28;46840;-65
2024/01/25 02:12:32;;;;;;;;;3.67;3.67;;;;;17.34;100.00;102525.66;2097924;28;46648;-64
2024/01/25 02:13:33;;;;;;;;;4.67;3.33;;;;;17.30;100.00;102526.66;2097854;28;46860;-65
2024/01/25 02:14:33;;;;;;;;;4.00;4.00;;;;;17.28;100.00;102529.38;2097661;28;46430;-65
2024/01/25 02:15:33;;;;;;;;;3.00;2.00;;;;;17.28;100.00;102532.06;2097656;28;46158;-66
2024/01/25 02:16:34;;;;;;;;;4.00;3.33;;;;;17.27;100.00;102524.00;2095324;28;46222;-65
2024/01/25 02:17:35;;;;;;;;;2.75;2.25;;;;;17.25;100.00;102523.16;2097022;28;45760;-65
2024/01/25 02:18:36;;;;;;;;;2.67;2.67;;;;;17.21;100.00;102522.34;2097543;28;46379;-64
2024/01/25 02:19:36;;;;;;;;;3.33;2.33;;;;;17.18;100.00;102521.53;2097652;28;46740;-66
2024/01/25 02:20:36;;;;;;;;;3.00;3.00;;;;;17.19;100.00;102518.81;2097674;28;46628;-66
2024/01/25 02:21:36;;;;;;;;;3.33;2.33;;;;;17.18;100.00;102522.44;2096516;28;46230;-65
2024/01/25 02:22:37;;;;;;;;;4.00;3.00;;;;;17.17;100.00;102517.97;2096325;28;46515;-64
2024/01/25 02:23:37;;;;;;;;;6.00;4.00;;;;;17.19;100.00;102520.63;2097800;28;46185;-64
2024/01/25 02:24:37;;;;;;;;;4.67;4.67;;;;;17.19;100.00;102521.50;2097587;28;46748;-65
2024/01/25 02:25:38;;;;;;;;;4.00;3.00;;;;;17.19;100.00;102521.50;2097658;28;46233;-65
2024/01/25 02:26:38;;;;;;;;;5.33;3.00;;;;;17.19;100.00;102520.63;2097609;28;45022;-65
2024/01/25 02:27:38;;;;;;;;;3.67;2.67;;;;;17.23;100.00;102507.09;2096315;28;46290;-65
2024/01/25 02:28:39;;;;;;;;;2.00;2.00;;;;;17.30;100.00;102518.59;2088070;28;46427;-65
2024/01/25 02:29:39;;;;;;;;;3.33;3.33;;;;;17.33;100.00;102526.59;2097148;28;46284;-65
2024/01/25 02:30:39;;;;;;;;;7.33;7.33;;;;;17.37;100.00;102522.91;2097634;28;46477;-65
2024/01/25 02:31:40;;;;;;;;;7.33;7.33;;;;;17.36;100.00;102522.03;2097642;28;46249;-65
2024/01/25 02:32:42;;;;;;;;;7.00;6.00;;;;;17.38;100.00;102523.78;2097374;28;45849;-65
2024/01/25 02:33:43;;;;;;;;;5.50;5.00;;;;;17.36;100.00;102518.47;2097564;28;46501;-64
2024/01/25 02:34:43;;;;;;;;;6.67;6.67;;;;;16.92;100.00;102527.41;2097506;28;45547;-66
2024/01/25 02:35:44;;;;;;;;;8.33;6.33;;;;;17.25;100.00;102521.38;2095072;28;46650;-65
2024/01/25 02:36:44;;;;;;;;;4.00;4.00;;;;;17.33;100.00;102522.09;2096483;28;46735;-66
2024/01/25 02:37:44;;;;;;;;;6.00;5.33;;;;;17.36;100.00;102513.97;2097356;28;45557;-66
2024/01/25 02:38:45;;;;;;;;;5.67;5.67;;;;;17.38;100.00;102515.75;2097620;28;45866;-65
2024/01/25 02:39:45;;;;;;;;;5.00;5.00;;;;;17.36;100.00;102516.66;2097033;28;46900;-65
2024/01/25 02:40:45;;;;;;;;;5.67;5.67;;;;;17.36;100.00;102526.50;2096770;28;46693;-65
2024/01/25 02:41:46;;;;;;;;;5.33;4.33;;;;;16.96;100.00;102523.75;2097702;28;45743;-66
2024/01/25 02:42:46;;;;;;;;;3.00;3.00;;;;;17.29;100.00;102531.13;2098038;28;46230;-65
2024/01/25 02:43:46;;;;;;;;;4.67;4.33;;;;;17.30;100.00;102527.53;2095904;28;46237;-65
2024/01/25 02:44:47;;;;;;;;;3.00;2.00;;;;;17.30;100.00;102538.28;2097158;28;45871;-65
2024/01/25 02:45:48;;;;;;;;;6.00;4.00;;;;;17.28;100.00;102532.06;2097489;28;46420;-65
2024/01/25 02:46:48;;;;;;;;;6.00;3.75;;;;;17.29;100.00;102538.31;2097747;28;45609;-65
2024/01/25 02:47:49;;;;;;;;;5.00;4.00;;;;;17.27;100.00;102524.91;2097431;28;46753;-66
2024/01/25 02:48:49;;;;;;;;;5.00;3.67;;;;;17.30;100.00;102532.03;2097829;28;46068;-65
2024/01/25 02:49:49;;;;;;;;;4.00;4.00;;;;;17.29;100.00;102530.25;2097377;28;46294;-65
2024/01/25 02:50:50;;;;;;;;;6.00;4.00;;;;;17.30;100.00;102526.66;2097631;28;46183;-66
2024/01/25 02:51:50;;;;;;;;;5.00;5.00;;;;;17.28;100.00;102526.69;2096181;28;46365;-65
2024/01/25 02:52:51;;;;;;;;;4.33;4.00;;;;;17.28;100.00;102532.06;2097650;28;46650;-66
2024/01/25 02:53:51;;;;;;;;;6.67;5.33;;;;;17.28;100.00;102521.31;2097884;28;46391;-66
2024/01/25 02:54:52;;;;;;;;;5.00;4.00;;;;;17.27;100.00;102524.91;2096252;28;46244;-65
2024/01/25 02:55:52;;;;;;;;;3.33;3.33;;;;;17.29;100.00;102528.47;2096284;28;46452;-65
2024/01/25 02:56:52;;;;;;;;;5.00;5.00;;;;;17.30;100.00;102523.97;2097576;28;46226;-65
2024/01/25 02:57:52;;;;;;;;;5.00;4.00;;;;;17.31;100.00;102523.94;2097445;28;46267;-65
2024/01/25 02:58:53;;;;;;;;;5.33;5.33;;;;;17.32;100.00;102523.03;2096941;28;47308;-65
2024/01/25 02:59:53;;;;;;;;;7.33;6.33;;;;;17.40;100.00;102527.31;2096631;28;46943;-65
2024/01/25 03:00:53;;;;;;;;;5.67;4.67;;;;;17.43;100.00;102532.66;2097494;28;46360;-66
2024/01/25 03:01:54;;;;;;;;;6.67;5.67;;;;;17.42;100.00;102529.09;2098950;28;46594;-66
2024/01/25 03:02:55;;;;;;;;;5.00;5.00;;;;;17.42;100.00;102517.47;2103380;28;46243;-65
2024/01/25 03:03:55;;;;;;;;;5.67;5.67;;;;;17.43;100.00;102519.22;2097612;28;46460;-66
2024/01/25 03:04:55;;;;;;;;;4.67;4.67;;;;;17.44;100.00;102516.50;2097509;28;46444;-65
2024/01/25 03:05:56;;;;;;;;;5.67;5.67;;;;;17.44;100.00;102523.69;2097296;28;46255;-66
2024/01/25 03:06:56;;;;;;;;;7.00;5.00;;;;;17.47;100.00;102521.81;2097674;28;46666;-66
2024/01/25 03:07:56;;;;;;;;;7.00;4.00;;;;;17.46;100.00;102520.03;2096895;28;46349;-65
2024/01/25 03:08:56;;;;;;;;;8.00;6.67;;;;;17.48;100.00;102520.88;2094961;28;46204;-65
2024/01/25 03:09:57;;;;;;;;;6.67;5.33;;;;;17.48;100.00;102514.63;2096165;28;47877;-65
2024/01/25 03:10:57;;;;;;;;;5.00;4.67;;;;;17.49;100.00;102525.34;2091665;28;45674;-65
2024/01/25 03:11:57;;;;;;;;;6.00;5.00;;;;;17.49;100.00;102516.41;2096910;28;46156;-65
2024/01/25 03:12:58;;;;;;;;;6.67;6.67;;;;;17.41;100.00;102508.53;2096726;28;45795;-65
2024/01/25 03:13:58;;;;;;;;;6.67;4.33;;;;;17.42;100.00;102512.09;2096576;28;46334;-65
2024/01/25 03:14:58;;;;;;;;;11.33;7.33;;;;;17.42;100.00;102512.09;2097012;28;46507;-66
2024/01/25 03:15:59;;;;;;;;;9.00;6.00;;;;;17.41;100.00;102518.38;2097577;28;45914;-66
2024/01/25 03:16:59;;;;;;;;;5.33;5.33;;;;;17.45;100.00;102510.22;2097445;28;46323;-66
2024/01/25 03:17:59;;;;;;;;;6.67;6.67;;;;;17.36;100.00;102513.09;2097593;28;46463;-66
2024/01/25 03:19:00;;;;;;;;;9.67;8.67;;;;;17.29;100.00;102512.34;2097354;28;46365;-66
2024/01/25 03:20:00;;;;;;;;;9.67;7.33;;;;;17.34;100.00;102512.25;2097665;28;46290;-65
2024/01/25 03:21:01;;;;;;;;;7.67;7.67;;;;;17.37;100.00;102506.81;2095213;28;46903;-65
2024/01/25 03:22:02;;;;;;;;;6.00;5.67;;;;;17.34;100.00;102513.13;2095204;28;46671;-66
2024/01/25 03:23:02;;;;;;;;;7.50;5.75;;;;;17.35;100.00;102511.31;2095710;28;45508;-66
2024/01/25 03:24:03;;;;;;;;;5.67;5.67;;;;;17.32;100.00;102506.03;2095990;28;45483;-66
2024/01/25 03:25:04;;;;;;;;;6.67;5.67;;;;;17.31;100.00;102507.84;2096729;28;46774;-66
2024/01/25 03:26:04;;;;;;;;;6.00;5.00;;;;;17.29;100.00;102508.78;2095785;28;46710;-66
2024/01/25 03:27:04;;;;;;;;;8.00;6.00;;;;;17.30;100.00;102506.06;2096744;28;46738;-66
2024/01/25 03:28:06;;;;;;;;;7.67;6.33;;;;;17.29;100.00;102509.66;2087466;28;46372;-66
2024/01/25 03:29:06;;;;;;;;;7.50;6.50;;;;;17.31;100.00;102509.63;2090527;28;47088;-66
2024/01/25 03:30:07;;;;;;;;;7.00;6.00;;;;;17.29;100.00;102509.66;2105447;27;46692;-66
2024/01/25 03:31:07;;;;;;;;;9.00;8.33;;;;;17.32;100.00;102514.97;2097167;28;46270;-66
2024/01/25 03:32:08;;;;;;;;;8.33;7.33;;;;;17.34;100.00;102517.63;2097839;28;46595;-66
2024/01/25 03:33:09;;;;;;;;;7.75;5.75;;;;;17.33;100.00;102513.16;2097728;28;45970;-65
2024/01/25 03:34:09;;;;;;;;;7.00;6.67;;;;;17.31;100.00;102521.25;2097289;28;47007;-65
2024/01/25 03:35:10;;;;;;;;;6.00;6.00;;;;;17.31;100.00;102512.31;2097192;28;46594;-65
2024/01/25 03:36:14;;;;;;;;;5.67;5.67;;;;;17.31;100.00;102507.84;2097260;28;46356;-66
2024/01/25 03:37:14;;;;;;;;;7.75;6.75;;;;;17.31;100.00;102505.16;2097235;28;46898;-65
2024/01/25 03:38:14;;;;;;;;;6.67;6.33;;;;;17.33;100.00;102502.44;2097217;28;46623;-66
2024/01/25 03:39:14;;;;;;;;;7.33;6.33;;;;;17.31;100.00;102499.78;2095760;28;46331;-65
2024/01/25 03:40:15;;;;;;;;;5.67;4.67;;;;;17.32;100.00;102496.19;2097661;28;45695;-65
2024/01/25 03:41:15;;;;;;;;;7.67;5.33;;;;;17.30;100.00;102498.03;2096940;28;46748;-66
2024/01/25 03:42:15;;;;;;;;;6.00;6.00;;;;;17.28;100.00;102502.53;2100060;28;46252;-66
2024/01/25 03:43:16;;;;;;;;;6.00;5.00;;;;;17.29;100.00;102503.44;2103766;27;46523;-65
2024/01/25 03:44:17;;;;;;;;;8.33;8.00;;;;;17.30;100.00;102494.47;2096688;28;46206;-65
2024/01/25 03:45:17;;;;;;;;;5.33;5.33;;;;;17.30;100.00;102499.81;2096654;28;45884;-65
2024/01/25 03:46:17;;;;;;;;;7.33;7.33;;;;;17.29;100.00;102492.69;2097372;28;46604;-66
2024/01/25 03:47:17;;;;;;;;;7.00;5.67;;;;;17.21;100.00;102494.63;2095710;28;46571;-64
2024/01/25 03:48:18;;;;;;;;;6.33;6.33;;;;;17.21;100.00;102494.63;2095954;28;46850;-65
2024/01/25 03:49:19;;;;;;;;;6.67;5.33;;;;;17.15;100.00;102490.31;2097049;28;46176;-64
2024/01/25 03:50:19;;;;;;;;;7.75;7.00;;;;;17.14;100.00;102498.34;2096456;28;46417;-66
2024/01/25 03:51:20;;;;;;;;;6.67;6.00;;;;;17.12;100.00;102497.50;2097693;28;46685;-65
2024/01/25 03:52:20;;;;;;;;;6.67;6.00;;;;;17.11;100.00;102499.31;2097169;28;46730;-66
2024/01/25 03:53:20;;;;;;;;;7.00;5.00;;;;;17.17;100.00;102496.50;2096876;28;46342;-65
2024/01/25 03:54:21;;;;;;;;;5.67;4.67;;;;;17.20;100.00;102506.28;2097654;28;46171;-66
2024/01/25 03:55:21;;;;;;;;;7.33;6.33;;;;;17.20;100.00;102492.88;2096032;28;46318;-66
2024/01/25 03:56:22;;;;;;;;;6.00;6.00;;;;;17.20;100.00;102498.25;2097139;28;46176;-65
2024/01/25 03:57:23;;;;;;;;;5.25;5.00;;;;;17.15;100.00;102500.13;2095640;28;46446;-67
2024/01/25 03:58:23;;;;;;;;;8.00;8.00;;;;;17.15;100.00;102502.81;2095744;28;46933;-66
2024/01/25 03:59:23;;;;;;;;;6.33;6.33;;;;;17.17;100.00;102506.38;2097064;28;46627;-66
2024/01/25 04:00:24;;;;;;;;;8.00;7.00;;;;;17.06;100.00;102504.78;2097289;28;46429;-66
2024/01/25 04:01:25;;;;;;;;;6.00;6.00;;;;;17.15;100.00;102505.47;2096830;28;46318;-66
2024/01/25 04:02:25;;;;;;;;;8.67;7.67;;;;;17.15;100.00;102500.13;2097551;28;44933;-66
2024/01/25 04:03:25;;;;;;;;;7.67;6.67;;;;;17.15;100.00;102508.16;2096740;28;46273;-66
2024/01/25 04:04:26;;;;;;;;;8.67;6.67;;;;;17.13;100.00;102502.84;2097053;28;46350;-66
2024/01/25 04:05:26;;;;;;;;;5.33;5.33;;;;;17.07;100.00;102505.66;2097221;28;46609;-66
2024/01/25 04:06:26;;;;;;;;;6.67;6.67;;;;;17.11;100.00;102510.03;2096855;28;46516;-66
2024/01/25 04:07:27;;;;;;;;;9.33;5.33;;;;;17.12;100.00;102505.56;2097104;28;46356;-66
2024/01/25 04:08:27;;;;;;;;;9.00;7.67;;;;;17.05;100.00;102503.00;2096970;28;46274;-66
2024/01/25 04:09:27;;;;;;;;;4.67;4.67;;;;;17.01;100.00;102495.91;2097096;28;46202;-66
2024/01/25 04:10:27;;;;;;;;;9.33;8.33;;;;;17.10;100.00;102499.34;2097347;28;46712;-66
2024/01/25 04:11:28;;;;;;;;;5.33;5.33;;;;;17.10;100.00;102494.84;2097168;28;46161;-66
2024/01/25 04:12:28;;;;;;;;;4.33;4.33;;;;;16.99;100.00;102497.75;2095304;28;46615;-65
2024/01/25 04:13:28;;;;;;;;;7.33;7.33;;;;;16.95;100.00;102497.84;2095595;28;46467;-65
2024/01/25 04:14:29;;;;;;;;;7.33;6.00;;;;;16.95;100.00;102493.38;2095831;28;46606;-65
2024/01/25 04:15:29;;;;;;;;;5.00;5.00;;;;;17.00;100.00;102501.31;2096972;28;46682;-65
2024/01/25 04:16:30;;;;;;;;;6.33;6.33;;;;;17.03;100.00;102498.59;2097154;28;46355;-66
2024/01/25 04:17:30;;;;;;;;;5.25;5.25;;;;;17.04;100.00;102495.88;2096822;28;46951;-65
2024/01/25 04:18:31;;;;;;;;;4.67;4.33;;;;;17.05;100.00;102492.28;2097176;28;45493;-65
2024/01/25 04:19:31;;;;;;;;;5.00;3.67;;;;;17.02;100.00;102491.44;2101050;28;46703;-65
2024/01/25 04:20:34;;;;;;;;;6.33;4.67;;;;;17.06;100.00;102490.47;2104403;27;46354;-65
2024/01/25 04:21:37;;;;;;;;;4.75;3.75;;;;;16.98;100.00;102492.41;2097319;28;45820;-65
2024/01/25 04:22:37;;;;;;;;;5.75;4.75;;;;;17.05;100.00;102497.66;2096712;28;46814;-65
2024/01/25 04:23:37;;;;;;;;;4.67;4.67;;;;;17.04;100.00;102490.50;2096578;28;46631;-65
2024/01/25 04:24:38;;;;;;;;;4.00;4.00;;;;;17.00;100.00;102502.19;2096250;28;45033;-66
2024/01/25 04:25:39;;;;;;;;;7.50;5.75;;;;;17.03;100.00;102493.22;2096541;28;46535;-65
2024/01/25 04:26:39;;;;;;;;;6.33;4.67;;;;;17.03;100.00;102494.13;2097011;28;46876;-65
2024/01/25 04:27:40;;;;;;;;;5.00;4.67;;;;;17.08;100.00;102502.06;2096812;28;46290;-65
2024/01/25 04:28:40;;;;;;;;;5.67;5.67;;;;;17.04;100.00;102503.03;2096746;28;48214;-65
2024/01/25 04:29:44;;;;;;;;;6.67;6.00;;;;;17.12;100.00;102508.25;2094258;28;48147;-66
2024/01/25 04:30:44;;;;;;;;;6.75;6.00;;;;;17.13;100.00;102501.94;2096580;28;46838;-65
2024/01/25 04:31:45;;;;;;;;;6.00;6.00;;;;;17.12;100.00;102503.75;2096767;28;46343;-65
2024/01/25 04:32:45;;;;;;;;;5.25;4.50;;;;;17.10;100.00;102500.22;2096662;28;46464;-65
2024/01/25 04:33:46;;;;;;;;;5.00;4.33;;;;;17.09;100.00;102501.13;2095280;28;46264;-65
2024/01/25 04:34:47;;;;;;;;;6.33;6.33;;;;;17.09;100.00;102505.63;2096153;28;46186;-66
2024/01/25 04:35:47;;;;;;;;;7.50;5.00;;;;;17.07;100.00;102500.28;2096100;28;46379;-66
2024/01/25 04:36:48;;;;;;;;;7.33;7.00;;;;;17.10;100.00;102502.91;2096461;28;46796;-65
2024/01/25 04:37:48;;;;;;;;;5.00;5.00;;;;;17.06;100.00;102499.41;2104584;28;46537;-66
2024/01/25 04:38:48;;;;;;;;;6.00;6.00;;;;;17.10;100.00;102496.66;2099582;28;46722;-65